sensor_id;sensor_type;location;lat;lon;timestamp;P1;durP1;ratioP1;P2;durP2;ratioP2
26686;SDS011;14298;50.900;4.648;2024-03-22T00:00:25;14.87;;;9.77;;
26686;SDS011;14298;50.900;4.648;2024-03-22T00:02:53;12.77;;;9.83;;
26686;SDS011;14298;50.900;4.648;2024-03-22T00:05:21;12.63;;;9.43;;
26686;SDS011;14298;50.900;4.648;2024-03-22T00:07:49;12.63;;;8.73;;
26686;SDS011;14298;50.900;4.648;2024-03-22T00:10:17;14.27;;;9.87;;
26686;SDS011;14298;50.900;4.648;2024-03-22T00:12:45;19.37;;;12.23;;
26686;SDS011;14298;50.900;4.648;2024-03-22T00:15:13;15.83;;;9.87;;
26686;SDS011;14298;50.900;4.648;2024-03-22T00:17:44;16.53;;;10.57;;
26686;SDS011;14298;50.900;4.648;2024-03-22T00:20:12;15.27;;;10.80;;
26686;SDS011;14298;50.900;4.648;2024-03-22T00:22:41;20.30;;;10.90;;
26686;SDS011;14298;50.900;4.648;2024-03-22T00:25:09;16.17;;;10.43;;
26686;SDS011;14298;50.900;4.648;2024-03-22T00:27:37;15.47;;;10.53;;
26686;SDS011;14298;50.900;4.648;2024-03-22T00:30:05;12.80;;;8.97;;
26686;SDS011;14298;50.900;4.648;2024-03-22T00:32:33;15.40;;;10.30;;
26686;SDS011;14298;50.900;4.648;2024-03-22T00:35:01;13.07;;;9.80;;
26686;SDS011;14298;50.900;4.648;2024-03-22T00:37:29;11.83;;;9.83;;
26686;SDS011;14298;50.900;4.648;2024-03-22T00:39:57;20.40;;;10.97;;
26686;SDS011;14298;50.900;4.648;2024-03-22T00:42:25;16.77;;;9.17;;
26686;SDS011;14298;50.900;4.648;2024-03-22T00:44:53;17.77;;;9.70;;
26686;SDS011;14298;50.900;4.648;2024-03-22T00:47:22;17.97;;;10.70;;
26686;SDS011;14298;50.900;4.648;2024-03-22T00:49:50;11.63;;;8.40;;
26686;SDS011;14298;50.900;4.648;2024-03-22T00:52:18;14.80;;;10.37;;
26686;SDS011;14298;50.900;4.648;2024-03-22T00:54:46;16.93;;;10.23;;
26686;SDS011;14298;50.900;4.648;2024-03-22T00:57:14;16.87;;;9.60;;
26686;SDS011;14298;50.900;4.648;2024-03-22T00:59:42;15.17;;;10.27;;
26686;SDS011;14298;50.900;4.648;2024-03-22T01:02:10;11.13;;;8.93;;
26686;SDS011;14298;50.900;4.648;2024-03-22T01:04:38;11.13;;;8.57;;
26686;SDS011;14298;50.900;4.648;2024-03-22T01:07:06;17.60;;;8.90;;
26686;SDS011;14298;50.900;4.648;2024-03-22T01:09:34;23.73;;;8.27;;
26686;SDS011;14298;50.900;4.648;2024-03-22T01:12:02;15.47;;;8.90;;
26686;SDS011;14298;50.900;4.648;2024-03-22T01:14:31;12.43;;;8.03;;
26686;SDS011;14298;50.900;4.648;2024-03-22T01:16:59;13.83;;;8.70;;
26686;SDS011;14298;50.900;4.648;2024-03-22T01:19:27;15.43;;;9.63;;
26686;SDS011;14298;50.900;4.648;2024-03-22T01:21:55;14.47;;;8.57;;
26686;SDS011;14298;50.900;4.648;2024-03-22T01:24:22;13.97;;;8.50;;
26686;SDS011;14298;50.900;4.648;2024-03-22T01:26:51;12.30;;;7.33;;
26686;SDS011;14298;50.900;4.648;2024-03-22T01:29:19;14.30;;;8.60;;
26686;SDS011;14298;50.900;4.648;2024-03-22T01:31:47;11.63;;;7.60;;
26686;SDS011;14298;50.900;4.648;2024-03-22T01:37:03;9.73;;;7.07;;
26686;SDS011;14298;50.900;4.648;2024-03-22T01:39:31;18.27;;;6.47;;
26686;SDS011;14298;50.900;4.648;2024-03-22T01:41:59;9.57;;;7.80;;
26686;SDS011;14298;50.900;4.648;2024-03-22T01:44:32;10.20;;;6.57;;
26686;SDS011;14298;50.900;4.648;2024-03-22T01:46:56;12.23;;;5.77;;
26686;SDS011;14298;50.900;4.648;2024-03-22T01:49:24;8.03;;;6.37;;
26686;SDS011;14298;50.900;4.648;2024-03-22T01:51:53;9.50;;;6.00;;
26686;SDS011;14298;50.900;4.648;2024-03-22T01:54:21;8.67;;;5.40;;
26686;SDS011;14298;50.900;4.648;2024-03-22T01:56:49;8.83;;;5.97;;
26686;SDS011;14298;50.900;4.648;2024-03-22T01:59:17;13.43;;;7.03;;
26686;SDS011;14298;50.900;4.648;2024-03-22T02:01:46;6.77;;;5.67;;
26686;SDS011;14298;50.900;4.648;2024-03-22T02:04:16;7.13;;;5.10;;
26686;SDS011;14298;50.900;4.648;2024-03-22T02:06:44;8.50;;;5.90;;
26686;SDS011;14298;50.900;4.648;2024-03-22T02:09:11;12.53;;;6.00;;
26686;SDS011;14298;50.900;4.648;2024-03-22T02:11:39;5.63;;;5.07;;
26686;SDS011;14298;50.900;4.648;2024-03-22T02:14:07;13.93;;;5.27;;
26686;SDS011;14298;50.900;4.648;2024-03-22T02:16:35;8.57;;;5.40;;
26686;SDS011;14298;50.900;4.648;2024-03-22T02:19:04;7.23;;;5.83;;
26686;SDS011;14298;50.900;4.648;2024-03-22T02:21:32;9.63;;;5.93;;
26686;SDS011;14298;50.900;4.648;2024-03-22T02:24:00;7.07;;;5.40;;
26686;SDS011;14298;50.900;4.648;2024-03-22T02:26:28;6.63;;;5.17;;
26686;SDS011;14298;50.900;4.648;2024-03-22T02:28:56;6.13;;;5.43;;
26686;SDS011;14298;50.900;4.648;2024-03-22T02:31:24;7.77;;;5.70;;
26686;SDS011;14298;50.900;4.648;2024-03-22T02:33:53;8.30;;;5.60;;
26686;SDS011;14298;50.900;4.648;2024-03-22T02:36:21;7.53;;;6.00;;
26686;SDS011;14298;50.900;4.648;2024-03-22T02:38:49;6.73;;;5.17;;
26686;SDS011;14298;50.900;4.648;2024-03-22T02:41:17;7.10;;;5.60;;
26686;SDS011;14298;50.900;4.648;2024-03-22T02:43:45;9.97;;;5.37;;
26686;SDS011;14298;50.900;4.648;2024-03-22T02:46:13;8.50;;;5.77;;
26686;SDS011;14298;50.900;4.648;2024-03-22T02:48:41;6.00;;;5.43;;
26686;SDS011;14298;50.900;4.648;2024-03-22T02:51:09;5.67;;;4.57;;
26686;SDS011;14298;50.900;4.648;2024-03-22T02:53:37;4.97;;;3.87;;
26686;SDS011;14298;50.900;4.648;2024-03-22T02:56:05;8.87;;;5.17;;
26686;SDS011;14298;50.900;4.648;2024-03-22T02:58:33;9.90;;;5.80;;
26686;SDS011;14298;50.900;4.648;2024-03-22T03:01:03;7.13;;;5.50;;
26686;SDS011;14298;50.900;4.648;2024-03-22T03:03:31;7.97;;;6.20;;
26686;SDS011;14298;50.900;4.648;2024-03-22T03:05:59;7.70;;;6.17;;
26686;SDS011;14298;50.900;4.648;2024-03-22T03:08:27;6.27;;;4.93;;
26686;SDS011;14298;50.900;4.648;2024-03-22T03:10:55;8.13;;;5.30;;
26686;SDS011;14298;50.900;4.648;2024-03-22T03:13:23;9.63;;;5.13;;
26686;SDS011;14298;50.900;4.648;2024-03-22T03:15:51;4.57;;;3.70;;
26686;SDS011;14298;50.900;4.648;2024-03-22T03:18:19;5.20;;;4.17;;
26686;SDS011;14298;50.900;4.648;2024-03-22T03:20:47;6.57;;;5.10;;
26686;SDS011;14298;50.900;4.648;2024-03-22T03:23:15;6.63;;;5.07;;
26686;SDS011;14298;50.900;4.648;2024-03-22T03:25:43;4.93;;;4.10;;
26686;SDS011;14298;50.900;4.648;2024-03-22T03:28:11;6.10;;;4.33;;
26686;SDS011;14298;50.900;4.648;2024-03-22T03:30:40;4.97;;;4.17;;
26686;SDS011;14298;50.900;4.648;2024-03-22T03:33:08;7.13;;;6.03;;
26686;SDS011;14298;50.900;4.648;2024-03-22T03:35:36;5.37;;;4.60;;
26686;SDS011;14298;50.900;4.648;2024-03-22T03:38:04;6.80;;;4.43;;
26686;SDS011;14298;50.900;4.648;2024-03-22T03:40:32;5.80;;;3.73;;
26686;SDS011;14298;50.900;4.648;2024-03-22T03:43:00;7.10;;;4.10;;
26686;SDS011;14298;50.900;4.648;2024-03-22T03:45:28;5.67;;;4.47;;
26686;SDS011;14298;50.900;4.648;2024-03-22T03:47:55;7.50;;;3.60;;
26686;SDS011;14298;50.900;4.648;2024-03-22T03:50:23;4.40;;;4.00;;
26686;SDS011;14298;50.900;4.648;2024-03-22T03:52:51;6.50;;;5.07;;
26686;SDS011;14298;50.900;4.648;2024-03-22T03:55:19;5.87;;;5.13;;
26686;SDS011;14298;50.900;4.648;2024-03-22T03:57:49;4.40;;;4.00;;
26686;SDS011;14298;50.900;4.648;2024-03-22T04:00:18;6.80;;;3.80;;
26686;SDS011;14298;50.900;4.648;2024-03-22T04:02:48;3.67;;;3.37;;
26686;SDS011;14298;50.900;4.648;2024-03-22T04:05:16;5.13;;;4.63;;
26686;SDS011;14298;50.900;4.648;2024-03-22T04:07:46;5.73;;;4.23;;
26686;SDS011;14298;50.900;4.648;2024-03-22T04:10:13;8.17;;;5.03;;
26686;SDS011;14298;50.900;4.648;2024-03-22T04:12:41;5.50;;;4.03;;
26686;SDS011;14298;50.900;4.648;2024-03-22T04:15:09;5.13;;;3.70;;
26686;SDS011;14298;50.900;4.648;2024-03-22T04:17:37;5.10;;;3.40;;
26686;SDS011;14298;50.900;4.648;2024-03-22T04:20:06;3.93;;;3.43;;
26686;SDS011;14298;50.900;4.648;2024-03-22T04:22:35;7.03;;;2.57;;
26686;SDS011;14298;50.900;4.648;2024-03-22T04:25:03;5.83;;;3.73;;
26686;SDS011;14298;50.900;4.648;2024-03-22T04:27:31;4.60;;;4.17;;
26686;SDS011;14298;50.900;4.648;2024-03-22T04:29:59;6.00;;;3.97;;
26686;SDS011;14298;50.900;4.648;2024-03-22T04:32:27;9.30;;;4.23;;
26686;SDS011;14298;50.900;4.648;2024-03-22T04:34:55;5.23;;;4.73;;
26686;SDS011;14298;50.900;4.648;2024-03-22T04:37:23;6.87;;;4.13;;
26686;SDS011;14298;50.900;4.648;2024-03-22T04:39:51;4.80;;;2.70;;
26686;SDS011;14298;50.900;4.648;2024-03-22T04:42:19;4.03;;;3.10;;
26686;SDS011;14298;50.900;4.648;2024-03-22T04:44:47;4.57;;;3.53;;
26686;SDS011;14298;50.900;4.648;2024-03-22T04:47:15;4.43;;;3.43;;
26686;SDS011;14298;50.900;4.648;2024-03-22T04:52:30;5.40;;;4.53;;
26686;SDS011;14298;50.900;4.648;2024-03-22T04:54:59;3.53;;;3.23;;
26686;SDS011;14298;50.900;4.648;2024-03-22T04:57:28;2.73;;;2.53;;
26686;SDS011;14298;50.900;4.648;2024-03-22T04:59:56;3.97;;;3.53;;
26686;SDS011;14298;50.900;4.648;2024-03-22T05:02:24;7.00;;;3.77;;
26686;SDS011;14298;50.900;4.648;2024-03-22T05:04:52;2.80;;;2.37;;
26686;SDS011;14298;50.900;4.648;2024-03-22T05:07:20;5.63;;;3.27;;
26686;SDS011;14298;50.900;4.648;2024-03-22T05:09:48;4.57;;;3.87;;
26686;SDS011;14298;50.900;4.648;2024-03-22T05:12:16;5.97;;;3.90;;
26686;SDS011;14298;50.900;4.648;2024-03-22T05:14:45;7.77;;;3.67;;
26686;SDS011;14298;50.900;4.648;2024-03-22T05:17:13;6.47;;;3.47;;
26686;SDS011;14298;50.900;4.648;2024-03-22T05:19:41;3.30;;;3.00;;
26686;SDS011;14298;50.900;4.648;2024-03-22T05:22:09;9.40;;;5.57;;
26686;SDS011;14298;50.900;4.648;2024-03-22T05:24:37;5.70;;;3.53;;
26686;SDS011;14298;50.900;4.648;2024-03-22T05:27:05;4.53;;;4.13;;
26686;SDS011;14298;50.900;4.648;2024-03-22T05:29:33;7.83;;;4.57;;
26686;SDS011;14298;50.900;4.648;2024-03-22T05:32:01;5.73;;;4.03;;
26686;SDS011;14298;50.900;4.648;2024-03-22T05:34:30;3.97;;;3.40;;
26686;SDS011;14298;50.900;4.648;2024-03-22T05:36:58;6.63;;;3.37;;
26686;SDS011;14298;50.900;4.648;2024-03-22T05:39:26;5.90;;;3.70;;
26686;SDS011;14298;50.900;4.648;2024-03-22T05:41:54;6.07;;;3.97;;
26686;SDS011;14298;50.900;4.648;2024-03-22T05:44:22;5.03;;;4.10;;
26686;SDS011;14298;50.900;4.648;2024-03-22T05:46:50;7.47;;;3.77;;
26686;SDS011;14298;50.900;4.648;2024-03-22T05:49:18;7.67;;;4.43;;
26686;SDS011;14298;50.900;4.648;2024-03-22T05:51:46;5.97;;;3.73;;
26686;SDS011;14298;50.900;4.648;2024-03-22T05:54:14;4.87;;;3.73;;
26686;SDS011;14298;50.900;4.648;2024-03-22T05:56:42;6.83;;;3.40;;
26686;SDS011;14298;50.900;4.648;2024-03-22T05:59:10;5.23;;;4.60;;
26686;SDS011;14298;50.900;4.648;2024-03-22T06:01:38;6.80;;;4.47;;
26686;SDS011;14298;50.900;4.648;2024-03-22T06:04:06;4.50;;;4.10;;
26686;SDS011;14298;50.900;4.648;2024-03-22T06:06:35;4.00;;;3.67;;
26686;SDS011;14298;50.900;4.648;2024-03-22T06:09:03;9.00;;;5.27;;
26686;SDS011;14298;50.900;4.648;2024-03-22T06:11:31;4.40;;;3.97;;
26686;SDS011;14298;50.900;4.648;2024-03-22T06:13:59;4.03;;;3.27;;
26686;SDS011;14298;50.900;4.648;2024-03-22T06:16:27;6.67;;;5.07;;
26686;SDS011;14298;50.900;4.648;2024-03-22T06:18:55;7.53;;;3.80;;
26686;SDS011;14298;50.900;4.648;2024-03-22T06:21:23;7.47;;;5.37;;
26686;SDS011;14298;50.900;4.648;2024-03-22T06:23:52;4.47;;;3.67;;
26686;SDS011;14298;50.900;4.648;2024-03-22T06:26:20;4.67;;;4.20;;
26686;SDS011;14298;50.900;4.648;2024-03-22T06:28:48;6.07;;;3.77;;
26686;SDS011;14298;50.900;4.648;2024-03-22T06:31:16;8.83;;;4.60;;
26686;SDS011;14298;50.900;4.648;2024-03-22T06:33:44;8.47;;;4.03;;
26686;SDS011;14298;50.900;4.648;2024-03-22T06:36:12;4.87;;;3.60;;
26686;SDS011;14298;50.900;4.648;2024-03-22T06:38:40;4.23;;;3.43;;
26686;SDS011;14298;50.900;4.648;2024-03-22T06:41:08;6.37;;;3.70;;
26686;SDS011;14298;50.900;4.648;2024-03-22T06:43:36;5.53;;;3.97;;
26686;SDS011;14298;50.900;4.648;2024-03-22T06:46:04;9.00;;;4.67;;
26686;SDS011;14298;50.900;4.648;2024-03-22T06:48:32;4.90;;;3.37;;
26686;SDS011;14298;50.900;4.648;2024-03-22T06:51:00;4.30;;;3.90;;
26686;SDS011;14298;50.900;4.648;2024-03-22T06:53:28;4.10;;;3.03;;
26686;SDS011;14298;50.900;4.648;2024-03-22T06:55:56;5.17;;;3.63;;
26686;SDS011;14298;50.900;4.648;2024-03-22T06:58:24;5.17;;;4.20;;
26686;SDS011;14298;50.900;4.648;2024-03-22T07:00:52;4.73;;;4.00;;
26686;SDS011;14298;50.900;4.648;2024-03-22T07:03:20;6.00;;;4.50;;
26686;SDS011;14298;50.900;4.648;2024-03-22T07:05:48;7.40;;;5.43;;
26686;SDS011;14298;50.900;4.648;2024-03-22T07:08:16;5.13;;;4.63;;
26686;SDS011;14298;50.900;4.648;2024-03-22T07:10:44;7.87;;;4.80;;
26686;SDS011;14298;50.900;4.648;2024-03-22T07:13:13;8.57;;;5.10;;
26686;SDS011;14298;50.900;4.648;2024-03-22T07:15:40;6.23;;;4.27;;
26686;SDS011;14298;50.900;4.648;2024-03-22T07:18:09;3.50;;;3.03;;
26686;SDS011;14298;50.900;4.648;2024-03-22T07:20:37;6.07;;;4.67;;
26686;SDS011;14298;50.900;4.648;2024-03-22T07:23:06;6.73;;;3.77;;
26686;SDS011;14298;50.900;4.648;2024-03-22T07:25:34;4.20;;;3.80;;
26686;SDS011;14298;50.900;4.648;2024-03-22T07:28:02;5.03;;;3.97;;
26686;SDS011;14298;50.900;4.648;2024-03-22T07:30:30;4.20;;;3.50;;
26686;SDS011;14298;50.900;4.648;2024-03-22T07:32:58;6.33;;;3.73;;
26686;SDS011;14298;50.900;4.648;2024-03-22T07:35:26;5.17;;;3.87;;
26686;SDS011;14298;50.900;4.648;2024-03-22T07:37:54;3.27;;;2.57;;
26686;SDS011;14298;50.900;4.648;2024-03-22T07:40:22;8.80;;;3.93;;
26686;SDS011;14298;50.900;4.648;2024-03-22T07:42:49;5.00;;;3.50;;
26686;SDS011;14298;50.900;4.648;2024-03-22T07:45:17;3.63;;;3.17;;
26686;SDS011;14298;50.900;4.648;2024-03-22T07:47:45;7.23;;;4.07;;
26686;SDS011;14298;50.900;4.648;2024-03-22T07:50:14;6.33;;;3.87;;
26686;SDS011;14298;50.900;4.648;2024-03-22T07:52:42;6.73;;;4.60;;
26686;SDS011;14298;50.900;4.648;2024-03-22T07:55:10;5.43;;;3.73;;
26686;SDS011;14298;50.900;4.648;2024-03-22T07:57:38;3.93;;;3.63;;
26686;SDS011;14298;50.900;4.648;2024-03-22T08:00:06;7.77;;;4.07;;
26686;SDS011;14298;50.900;4.648;2024-03-22T08:02:35;6.40;;;3.50;;
26686;SDS011;14298;50.900;4.648;2024-03-22T08:05:03;4.80;;;3.50;;
26686;SDS011;14298;50.900;4.648;2024-03-22T08:07:32;6.27;;;3.63;;
26686;SDS011;14298;50.900;4.648;2024-03-22T08:10:00;6.40;;;5.30;;
26686;SDS011;14298;50.900;4.648;2024-03-22T08:12:29;5.37;;;4.00;;
26686;SDS011;14298;50.900;4.648;2024-03-22T08:14:57;10.50;;;3.60;;
26686;SDS011;14298;50.900;4.648;2024-03-22T08:17:25;5.77;;;4.17;;
26686;SDS011;14298;50.900;4.648;2024-03-22T08:19:53;5.60;;;4.50;;
26686;SDS011;14298;50.900;4.648;2024-03-22T08:22:21;5.23;;;3.83;;
26686;SDS011;14298;50.900;4.648;2024-03-22T08:24:49;4.87;;;4.43;;
26686;SDS011;14298;50.900;4.648;2024-03-22T08:27:17;6.47;;;4.03;;
26686;SDS011;14298;50.900;4.648;2024-03-22T08:29:45;4.57;;;4.00;;
26686;SDS011;14298;50.900;4.648;2024-03-22T08:32:13;10.07;;;3.97;;
26686;SDS011;14298;50.900;4.648;2024-03-22T08:34:41;3.60;;;3.30;;
26686;SDS011;14298;50.900;4.648;2024-03-22T08:37:09;7.03;;;4.30;;
26686;SDS011;14298;50.900;4.648;2024-03-22T08:39:37;3.90;;;3.30;;
26686;SDS011;14298;50.900;4.648;2024-03-22T08:42:05;4.90;;;2.70;;
26686;SDS011;14298;50.900;4.648;2024-03-22T08:44:33;3.43;;;2.33;;
26686;SDS011;14298;50.900;4.648;2024-03-22T08:47:01;4.30;;;3.07;;
26686;SDS011;14298;50.900;4.648;2024-03-22T08:49:29;5.37;;;2.73;;
26686;SDS011;14298;50.900;4.648;2024-03-22T08:51:57;5.03;;;2.90;;
26686;SDS011;14298;50.900;4.648;2024-03-22T08:54:25;4.17;;;2.90;;
26686;SDS011;14298;50.900;4.648;2024-03-22T08:56:53;4.30;;;3.90;;
26686;SDS011;14298;50.900;4.648;2024-03-22T08:59:21;6.13;;;4.13;;
26686;SDS011;14298;50.900;4.648;2024-03-22T09:01:51;5.20;;;3.37;;
26686;SDS011;14298;50.900;4.648;2024-03-22T09:04:19;8.20;;;5.10;;
26686;SDS011;14298;50.900;4.648;2024-03-22T09:06:47;4.93;;;4.33;;
26686;SDS011;14298;50.900;4.648;2024-03-22T09:09:15;3.47;;;3.17;;
26686;SDS011;14298;50.900;4.648;2024-03-22T09:11:44;4.53;;;4.13;;
26686;SDS011;14298;50.900;4.648;2024-03-22T09:14:12;3.80;;;3.30;;
26686;SDS011;14298;50.900;4.648;2024-03-22T09:16:40;8.30;;;4.37;;
26686;SDS011;14298;50.900;4.648;2024-03-22T09:19:07;3.80;;;3.50;;
26686;SDS011;14298;50.900;4.648;2024-03-22T09:21:37;5.13;;;3.77;;
26686;SDS011;14298;50.900;4.648;2024-03-22T09:24:05;4.63;;;3.60;;
26686;SDS011;14298;50.900;4.648;2024-03-22T09:26:33;4.77;;;4.07;;
26686;SDS011;14298;50.900;4.648;2024-03-22T09:29:02;4.67;;;4.00;;
26686;SDS011;14298;50.900;4.648;2024-03-22T09:31:30;3.23;;;2.93;;
26686;SDS011;14298;50.900;4.648;2024-03-22T09:34:00;4.70;;;3.50;;
26686;SDS011;14298;50.900;4.648;2024-03-22T09:36:28;7.23;;;3.90;;
26686;SDS011;14298;50.900;4.648;2024-03-22T09:38:57;8.70;;;4.33;;
26686;SDS011;14298;50.900;4.648;2024-03-22T09:41:25;4.57;;;3.43;;
26686;SDS011;14298;50.900;4.648;2024-03-22T09:43:54;4.30;;;3.30;;
26686;SDS011;14298;50.900;4.648;2024-03-22T09:46:23;4.97;;;2.23;;
26686;SDS011;14298;50.900;4.648;2024-03-22T09:48:51;4.93;;;3.17;;
26686;SDS011;14298;50.900;4.648;2024-03-22T09:51:20;4.13;;;3.23;;
26686;SDS011;14298;50.900;4.648;2024-03-22T09:53:48;6.00;;;3.10;;
26686;SDS011;14298;50.900;4.648;2024-03-22T09:56:17;5.07;;;3.77;;
26686;SDS011;14298;50.900;4.648;2024-03-22T09:58:47;5.17;;;3.33;;
26686;SDS011;14298;50.900;4.648;2024-03-22T10:01:14;4.80;;;3.47;;
26686;SDS011;14298;50.900;4.648;2024-03-22T10:03:43;3.37;;;3.10;;
26686;SDS011;14298;50.900;4.648;2024-03-22T10:06:11;4.03;;;2.97;;
26686;SDS011;14298;50.900;4.648;2024-03-22T10:08:39;4.70;;;3.53;;
26686;SDS011;14298;50.900;4.648;2024-03-22T10:11:07;10.20;;;3.53;;
26686;SDS011;14298;50.900;4.648;2024-03-22T10:13:35;5.03;;;3.07;;
26686;SDS011;14298;50.900;4.648;2024-03-22T10:16:03;4.23;;;3.80;;
26686;SDS011;14298;50.900;4.648;2024-03-22T10:18:32;7.27;;;4.50;;
26686;SDS011;14298;50.900;4.648;2024-03-22T10:21:04;5.33;;;4.07;;
26686;SDS011;14298;50.900;4.648;2024-03-22T10:23:32;3.50;;;2.90;;
26686;SDS011;14298;50.900;4.648;2024-03-22T10:26:00;6.90;;;4.07;;
26686;SDS011;14298;50.900;4.648;2024-03-22T10:28:28;5.07;;;3.80;;
26686;SDS011;14298;50.900;4.648;2024-03-22T10:30:56;4.40;;;3.97;;
26686;SDS011;14298;50.900;4.648;2024-03-22T10:33:24;3.57;;;3.03;;
26686;SDS011;14298;50.900;4.648;2024-03-22T10:35:54;5.17;;;4.00;;
26686;SDS011;14298;50.900;4.648;2024-03-22T10:41:11;3.77;;;2.93;;
26686;SDS011;14298;50.900;4.648;2024-03-22T10:46:29;6.10;;;3.30;;
26686;SDS011;14298;50.900;4.648;2024-03-22T10:48:55;9.70;;;3.47;;
26686;SDS011;14298;50.900;4.648;2024-03-22T10:51:24;3.47;;;3.17;;
26686;SDS011;14298;50.900;4.648;2024-03-22T10:53:53;9.07;;;3.83;;
26686;SDS011;14298;50.900;4.648;2024-03-22T10:56:22;4.20;;;2.83;;
26686;SDS011;14298;50.900;4.648;2024-03-22T10:58:51;3.40;;;3.13;;
26686;SDS011;14298;50.900;4.648;2024-03-22T11:01:22;5.37;;;3.37;;
26686;SDS011;14298;50.900;4.648;2024-03-22T11:03:51;4.27;;;3.67;;
26686;SDS011;14298;50.900;4.648;2024-03-22T11:06:19;10.00;;;3.30;;
26686;SDS011;14298;50.900;4.648;2024-03-22T11:08:50;7.23;;;4.53;;
26686;SDS011;14298;50.900;4.648;2024-03-22T11:11:19;4.73;;;3.93;;
26686;SDS011;14298;50.900;4.648;2024-03-22T11:13:47;3.83;;;2.40;;
26686;SDS011;14298;50.900;4.648;2024-03-22T11:16:15;5.57;;;2.80;;
26686;SDS011;14298;50.900;4.648;2024-03-22T11:18:44;4.23;;;2.93;;
26686;SDS011;14298;50.900;4.648;2024-03-22T11:21:11;4.83;;;3.03;;
26686;SDS011;14298;50.900;4.648;2024-03-22T11:23:40;7.63;;;3.47;;
26686;SDS011;14298;50.900;4.648;2024-03-22T11:26:08;3.37;;;3.07;;
26686;SDS011;14298;50.900;4.648;2024-03-22T11:28:37;4.57;;;2.97;;
26686;SDS011;14298;50.900;4.648;2024-03-22T11:31:05;3.60;;;3.27;;
26686;SDS011;14298;50.900;4.648;2024-03-22T11:33:34;5.20;;;3.77;;
26686;SDS011;14298;50.900;4.648;2024-03-22T11:36:03;4.27;;;2.90;;
26686;SDS011;14298;50.900;4.648;2024-03-22T11:38:31;3.90;;;3.03;;
26686;SDS011;14298;50.900;4.648;2024-03-22T11:40:59;6.97;;;4.43;;
26686;SDS011;14298;50.900;4.648;2024-03-22T11:43:29;5.30;;;4.13;;
26686;SDS011;14298;50.900;4.648;2024-03-22T11:45:57;4.03;;;3.63;;
26686;SDS011;14298;50.900;4.648;2024-03-22T11:48:25;6.90;;;4.20;;
26686;SDS011;14298;50.900;4.648;2024-03-22T11:50:53;5.87;;;4.03;;
26686;SDS011;14298;50.900;4.648;2024-03-22T11:53:22;7.43;;;4.30;;
26686;SDS011;14298;50.900;4.648;2024-03-22T11:55:50;3.80;;;3.43;;
26686;SDS011;14298;50.900;4.648;2024-03-22T11:58:18;4.37;;;3.47;;
26686;SDS011;14298;50.900;4.648;2024-03-22T12:00:56;6.87;;;4.30;;
26686;SDS011;14298;50.900;4.648;2024-03-22T12:03:24;5.83;;;4.27;;
26686;SDS011;14298;50.900;4.648;2024-03-22T12:05:53;5.83;;;4.73;;
26686;SDS011;14298;50.900;4.648;2024-03-22T12:08:22;4.90;;;3.93;;
26686;SDS011;14298;50.900;4.648;2024-03-22T12:10:50;7.87;;;4.13;;
26686;SDS011;14298;50.900;4.648;2024-03-22T12:13:18;6.50;;;3.83;;
26686;SDS011;14298;50.900;4.648;2024-03-22T12:15:45;4.33;;;3.70;;
26686;SDS011;14298;50.900;4.648;2024-03-22T12:18:13;5.87;;;3.13;;
26686;SDS011;14298;50.900;4.648;2024-03-22T12:20:41;5.77;;;3.70;;
26686;SDS011;14298;50.900;4.648;2024-03-22T12:23:10;4.40;;;2.83;;
26686;SDS011;14298;50.900;4.648;2024-03-22T12:25:38;5.23;;;3.80;;
26686;SDS011;14298;50.900;4.648;2024-03-22T12:28:06;6.43;;;3.27;;
26686;SDS011;14298;50.900;4.648;2024-03-22T12:30:34;8.57;;;3.60;;
26686;SDS011;14298;50.900;4.648;2024-03-22T12:33:02;4.13;;;3.73;;
26686;SDS011;14298;50.900;4.648;2024-03-22T12:35:30;5.47;;;3.73;;
26686;SDS011;14298;50.900;4.648;2024-03-22T12:37:59;3.67;;;3.33;;
26686;SDS011;14298;50.900;4.648;2024-03-22T12:40:27;4.37;;;3.43;;
26686;SDS011;14298;50.900;4.648;2024-03-22T12:42:56;3.77;;;2.90;;
26686;SDS011;14298;50.900;4.648;2024-03-22T12:45:24;4.60;;;3.93;;
26686;SDS011;14298;50.900;4.648;2024-03-22T12:47:53;3.10;;;2.60;;
26686;SDS011;14298;50.900;4.648;2024-03-22T12:50:21;3.67;;;2.90;;
26686;SDS011;14298;50.900;4.648;2024-03-22T12:52:49;6.03;;;3.93;;
26686;SDS011;14298;50.900;4.648;2024-03-22T12:55:17;4.53;;;3.80;;
26686;SDS011;14298;50.900;4.648;2024-03-22T12:57:45;3.37;;;3.07;;
26686;SDS011;14298;50.900;4.648;2024-03-22T13:00:13;3.97;;;3.53;;
26686;SDS011;14298;50.900;4.648;2024-03-22T13:02:42;4.00;;;3.30;;
26686;SDS011;14298;50.900;4.648;2024-03-22T13:05:10;8.80;;;4.67;;
26686;SDS011;14298;50.900;4.648;2024-03-22T13:07:39;8.17;;;4.07;;
26686;SDS011;14298;50.900;4.648;2024-03-22T13:10:07;4.60;;;2.80;;
26686;SDS011;14298;50.900;4.648;2024-03-22T13:12:35;5.70;;;4.07;;
26686;SDS011;14298;50.900;4.648;2024-03-22T13:15:03;4.13;;;3.33;;
26686;SDS011;14298;50.900;4.648;2024-03-22T13:17:31;3.03;;;2.73;;
26686;SDS011;14298;50.900;4.648;2024-03-22T13:19:59;3.47;;;3.17;;
26686;SDS011;14298;50.900;4.648;2024-03-22T13:22:27;4.87;;;4.23;;
26686;SDS011;14298;50.900;4.648;2024-03-22T13:24:56;18.00;;;3.47;;
26686;SDS011;14298;50.900;4.648;2024-03-22T13:27:24;6.80;;;3.67;;
26686;SDS011;14298;50.900;4.648;2024-03-22T13:29:53;8.87;;;3.17;;
26686;SDS011;14298;50.900;4.648;2024-03-22T13:32:21;4.60;;;2.87;;
26686;SDS011;14298;50.900;4.648;2024-03-22T13:34:49;3.90;;;2.63;;
26686;SDS011;14298;50.900;4.648;2024-03-22T13:37:17;2.90;;;2.70;;
26686;SDS011;14298;50.900;4.648;2024-03-22T13:39:51;3.40;;;3.10;;
26686;SDS011;14298;50.900;4.648;2024-03-22T13:42:19;9.30;;;4.37;;
26686;SDS011;14298;50.900;4.648;2024-03-22T13:44:47;3.63;;;2.87;;
26686;SDS011;14298;50.900;4.648;2024-03-22T13:47:15;4.83;;;3.97;;
26686;SDS011;14298;50.900;4.648;2024-03-22T13:49:44;3.17;;;2.87;;
26686;SDS011;14298;50.900;4.648;2024-03-22T13:52:12;4.23;;;3.53;;
26686;SDS011;14298;50.900;4.648;2024-03-22T13:54:40;4.13;;;2.90;;
26686;SDS011;14298;50.900;4.648;2024-03-22T13:57:08;2.40;;;2.30;;
26686;SDS011;14298;50.900;4.648;2024-03-22T13:59:36;6.63;;;2.80;;
26686;SDS011;14298;50.900;4.648;2024-03-22T14:02:04;5.20;;;3.30;;
26686;SDS011;14298;50.900;4.648;2024-03-22T14:04:32;3.37;;;3.07;;
26686;SDS011;14298;50.900;4.648;2024-03-22T14:07:00;11.20;;;2.93;;
26686;SDS011;14298;50.900;4.648;2024-03-22T14:09:31;4.67;;;2.50;;
26686;SDS011;14298;50.900;4.648;2024-03-22T14:12:00;6.27;;;3.03;;
26686;SDS011;14298;50.900;4.648;2024-03-22T14:14:28;3.17;;;2.87;;
26686;SDS011;14298;50.900;4.648;2024-03-22T14:16:56;3.07;;;2.13;;
26686;SDS011;14298;50.900;4.648;2024-03-22T14:19:24;3.40;;;2.47;;
26686;SDS011;14298;50.900;4.648;2024-03-22T14:21:52;5.53;;;3.00;;
26686;SDS011;14298;50.900;4.648;2024-03-22T14:24:20;2.37;;;2.20;;
26686;SDS011;14298;50.900;4.648;2024-03-22T14:26:48;4.63;;;3.50;;
26686;SDS011;14298;50.900;4.648;2024-03-22T14:29:17;2.13;;;1.90;;
26686;SDS011;14298;50.900;4.648;2024-03-22T14:31:46;6.40;;;2.63;;
26686;SDS011;14298;50.900;4.648;2024-03-22T14:34:14;4.83;;;3.93;;
26686;SDS011;14298;50.900;4.648;2024-03-22T14:36:42;3.07;;;2.77;;
26686;SDS011;14298;50.900;4.648;2024-03-22T14:39:10;3.70;;;2.93;;
26686;SDS011;14298;50.900;4.648;2024-03-22T14:41:37;2.67;;;2.47;;
26686;SDS011;14298;50.900;4.648;2024-03-22T14:44:05;9.20;;;3.73;;
26686;SDS011;14298;50.900;4.648;2024-03-22T14:46:33;4.83;;;3.20;;
26686;SDS011;14298;50.900;4.648;2024-03-22T14:49:01;8.17;;;2.73;;
26686;SDS011;14298;50.900;4.648;2024-03-22T14:51:29;2.10;;;1.90;;
26686;SDS011;14298;50.900;4.648;2024-03-22T14:53:57;4.23;;;2.03;;
26686;SDS011;14298;50.900;4.648;2024-03-22T14:56:25;2.10;;;1.97;;
26686;SDS011;14298;50.900;4.648;2024-03-22T14:58:53;7.27;;;2.50;;
26686;SDS011;14298;50.900;4.648;2024-03-22T15:01:23;2.43;;;2.23;;